Terminal Aerodrome Forecast
Issued by NWS

Home | Current Version | Previous Version | Graphics & Text | Print | Product List | Glossary On
Versions: 1 2 3 4 5 6 7 8 9 10 11 12 13 14
000
FTUS43 KMPX 250525
TAFAXN
TAF
KAXN 250525Z 2506/2606 35009KT P6SM OVC100
     FM250800 02005KT P6SM OVC050
     FM251200 05008KT P6SM SCT020 OVC050
     FM251800 36012KT P6SM BKN040
     FM260000 35012KT P6SM SKC=

USA.gov is the U.S. government's official web portal to all federal, state and local government web resources and services.